Time;durP1;ratioP1;P1;durP2;ratioP2;P2;SDS_P1;SDS_P2;PMS_P1;PMS_P2;Temp;Humidity;BMP_temperature;BMP_pressure;BME280_temperature;BME280_humidity;BME280_pressure;Samples;Min_cycle;Max_cycle;Signal;HPM_P1;HPM_P2
2024/01/02 00:01:17;;;;;;;3.70;3.50;;;2.30;99.90;;;;;;5036415;28;20215;-76
2024/01/02 00:03:44;;;;;;;3.63;3.42;;;2.30;99.90;;;;;;5037341;28;20195;-75
2024/01/02 00:06:15;;;;;;;3.90;3.70;;;2.30;99.90;;;;;;5038642;28;20588;-75
2024/01/02 00:08:42;;;;;;;3.58;3.38;;;2.30;99.90;;;;;;5037487;28;20198;-76
2024/01/02 00:11:09;;;;;;;3.80;3.60;;;2.30;99.90;;;;;;5035869;28;20598;-75
2024/01/02 00:13:36;;;;;;;4.03;3.83;;;2.30;99.90;;;;;;5037102;28;20269;-75
2024/01/02 00:16:04;;;;;;;4.38;4.07;;;2.20;99.90;;;;;;5039698;28;20221;-75
2024/01/02 00:18:32;;;;;;;5.20;4.43;;;2.20;99.90;;;;;;5039995;28;20226;-76
2024/01/02 00:20:59;;;;;;;4.50;4.20;;;2.20;99.90;;;;;;5037445;28;20615;-75
2024/01/02 00:23:27;;;;;;;3.65;3.45;;;2.20;99.90;;;;;;5037951;28;20210;-75
2024/01/02 00:25:54;;;;;;;4.10;3.80;;;2.20;99.90;;;;;;5038461;28;20215;-76
2024/01/02 00:28:21;;;;;;;3.72;3.53;;;2.20;99.90;;;;;;5037343;28;20900;-76
2024/01/02 00:30:48;;;;;;;3.78;3.55;;;2.20;99.90;;;;;;5037626;28;20230;-75
2024/01/02 00:33:16;;;;;;;3.65;3.45;;;2.20;99.90;;;;;;5039534;28;20194;-74
2024/01/02 00:35:44;;;;;;;4.13;3.83;;;2.20;99.90;;;;;;5037083;28;20222;-75
2024/01/02 00:38:11;;;;;;;4.00;3.80;;;2.20;99.90;;;;;;5037919;28;20226;-75
2024/01/02 00:40:39;;;;;;;3.67;3.47;;;2.10;99.90;;;;;;5037896;28;20215;-76
2024/01/02 00:43:06;;;;;;;3.55;3.35;;;2.10;99.90;;;;;;5039190;28;21093;-75
2024/01/02 00:45:33;;;;;;;3.75;3.55;;;2.10;99.90;;;;;;5038120;28;20217;-75
2024/01/02 00:47:59;;;;;;;3.88;3.67;;;2.20;99.90;;;;;;5039719;28;20199;-76
2024/01/02 00:50:26;;;;;;;3.65;3.45;;;2.10;99.90;;;;;;5035981;28;20219;-75
2024/01/02 00:52:54;;;;;;;3.83;3.63;;;2.10;99.90;;;;;;5037934;28;20187;-75
2024/01/02 00:55:21;;;;;;;4.03;3.83;;;2.10;99.90;;;;;;5043677;28;20234;-75
2024/01/02 00:57:49;;;;;;;4.22;3.83;;;2.10;99.90;;;;;;5039005;28;20202;-75
2024/01/02 01:00:18;;;;;;;4.05;3.80;;;2.10;99.90;;;;;;5036901;28;20218;-75
2024/01/02 01:02:45;;;;;;;4.20;4.00;;;2.00;99.90;;;;;;5038397;28;20203;-76
2024/01/02 01:05:12;;;;;;;4.18;3.95;;;2.00;99.90;;;;;;5037129;28;20784;-75
2024/01/02 01:07:39;;;;;;;4.20;3.90;;;2.00;99.90;;;;;;5039059;28;20717;-76
2024/01/02 01:10:08;;;;;;;3.70;3.50;;;2.00;99.90;;;;;;5034033;28;20314;-75
2024/01/02 01:12:35;;;;;;;3.88;3.67;;;2.00;99.90;;;;;;5040502;28;20202;-76
2024/01/02 01:15:02;;;;;;;4.00;3.80;;;2.00;99.90;;;;;;5041362;28;20229;-75
2024/01/02 01:17:29;;;;;;;3.83;3.63;;;2.00;99.90;;;;;;5041845;28;20210;-76
2024/01/02 01:19:57;;;;;;;3.72;3.53;;;2.00;99.90;;;;;;5040423;28;20682;-76
2024/01/02 01:22:24;;;;;;;3.50;3.30;;;2.00;99.90;;;;;;5040341;28;20282;-75
2024/01/02 01:24:51;;;;;;;3.75;3.55;;;2.00;99.90;;;;;;5041746;28;20213;-75
2024/01/02 01:27:19;;;;;;;3.80;3.60;;;1.90;99.90;;;;;;5044150;28;20845;-76
2024/01/02 01:29:46;;;;;;;4.07;3.88;;;2.00;99.90;;;;;;5040321;28;20223;-75
2024/01/02 01:32:14;;;;;;;3.65;3.45;;;2.00;99.90;;;;;;5044675;28;20231;-75
2024/01/02 01:34:41;;;;;;;3.97;3.78;;;1.90;99.90;;;;;;5042626;28;20233;-76
2024/01/02 01:37:08;;;;;;;3.78;3.58;;;1.90;99.90;;;;;;5044008;28;20839;-74
2024/01/02 01:39:35;;;;;;;3.95;3.75;;;1.90;99.90;;;;;;5040978;28;20221;-75
2024/01/02 01:42:02;;;;;;;3.88;3.67;;;1.90;99.90;;;;;;5042062;28;20214;-75
2024/01/02 01:44:30;;;;;;;3.70;3.50;;;1.90;99.90;;;;;;5039773;28;20204;-76
2024/01/02 01:46:58;;;;;;;3.88;3.65;;;1.90;99.90;;;;;;5040792;28;20219;-75
2024/01/02 01:49:25;;;;;;;3.45;3.25;;;2.00;99.90;;;;;;5041025;28;20245;-76
2024/01/02 01:51:54;;;;;;;3.55;3.35;;;2.00;99.90;;;;;;5039821;28;20231;-76
2024/01/02 01:54:23;;;;;;;3.90;3.70;;;2.00;99.90;;;;;;5041153;28;20237;-76
2024/01/02 01:56:50;;;;;;;4.30;4.00;;;2.00;99.90;;;;;;5037675;28;20226;-75
2024/01/02 01:59:18;;;;;;;4.00;3.80;;;2.00;99.90;;;;;;5039836;28;20230;-75
2024/01/02 02:01:47;;;;;;;3.75;3.55;;;2.00;99.90;;;;;;5039318;28;20218;-75
2024/01/02 02:04:16;;;;;;;3.60;3.40;;;2.00;99.90;;;;;;5040465;28;20210;-75
2024/01/02 02:06:43;;;;;;;3.78;3.58;;;2.00;99.90;;;;;;5039400;28;20242;-75
2024/01/02 02:09:10;;;;;;;3.92;3.72;;;2.00;99.90;;;;;;5039681;28;20338;-75
2024/01/02 02:11:38;;;;;;;3.55;3.35;;;2.00;99.90;;;;;;5036769;28;20226;-75
2024/01/02 02:14:08;;;;;;;3.90;3.70;;;2.00;99.90;;;;;;5039498;28;20214;-76
2024/01/02 02:16:35;;;;;;;4.03;3.83;;;1.90;99.90;;;;;;5038169;28;20898;-75
2024/01/02 02:19:04;;;;;;;3.75;3.55;;;1.90;99.90;;;;;;5038176;28;20861;-75
2024/01/02 02:21:33;;;;;;;4.32;4.13;;;1.90;99.90;;;;;;5035958;28;20217;-76
2024/01/02 02:24:02;;;;;;;4.95;4.55;;;1.80;99.90;;;;;;5038401;28;20206;-75
2024/01/02 02:26:29;;;;;;;4.05;3.75;;;1.80;99.90;;;;;;5040566;28;20245;-75
2024/01/02 02:28:56;;;;;;;4.05;3.85;;;1.80;99.90;;;;;;5040526;28;20199;-75
2024/01/02 02:31:23;;;;;;;4.10;3.80;;;1.80;99.90;;;;;;5041080;28;20223;-74
2024/01/02 02:33:50;;;;;;;4.55;4.25;;;1.80;99.90;;;;;;5039927;28;20732;-75
2024/01/02 02:36:17;;;;;;;4.28;3.97;;;1.80;99.90;;;;;;5040101;28;21408;-75
2024/01/02 02:38:44;;;;;;;3.80;3.60;;;1.80;99.90;;;;;;5039854;28;20234;-75
2024/01/02 02:41:13;;;;;;;4.07;3.88;;;1.80;99.90;;;;;;5035860;28;20900;-76
2024/01/02 02:43:40;;;;;;;4.30;4.00;;;1.80;99.90;;;;;;5039788;28;20207;-75
2024/01/02 02:46:07;;;;;;;3.83;3.63;;;1.80;99.90;;;;;;5039390;28;20226;-75
2024/01/02 02:48:34;;;;;;;4.18;3.85;;;1.80;99.90;;;;;;5040850;28;20223;-74
2024/01/02 02:51:01;;;;;;;4.60;4.30;;;1.80;99.90;;;;;;5039292;28;20215;-75
2024/01/02 02:53:28;;;;;;;3.80;3.60;;;1.80;99.90;;;;;;5038490;28;20285;-77
2024/01/02 02:55:55;;;;;;;4.35;4.05;;;1.80;99.90;;;;;;5039187;28;20257;-75
2024/01/02 02:58:24;;;;;;;3.65;3.45;;;1.80;99.90;;;;;;5037968;28;20975;-74
2024/01/02 03:00:51;;;;;;;4.20;3.88;;;1.80;99.90;;;;;;5034770;28;20231;-74
2024/01/02 03:03:18;;;;;;;4.30;4.00;;;1.80;99.90;;;;;;5036955;28;20203;-75
2024/01/02 03:05:45;;;;;;;4.75;4.43;;;1.80;99.90;;;;;;5039058;28;20763;-75
2024/01/02 03:08:12;;;;;;;4.35;4.05;;;1.70;99.90;;;;;;5040141;28;20215;-75
2024/01/02 03:10:39;;;;;;;4.00;3.80;;;1.70;99.90;;;;;;5039818;28;20231;-75
2024/01/02 03:13:06;;;;;;;4.03;3.83;;;1.70;99.90;;;;;;5037075;28;20214;-74
2024/01/02 03:15:34;;;;;;;4.55;4.25;;;1.70;99.90;;;;;;5040273;28;20222;-75
2024/01/02 03:18:02;;;;;;;4.05;3.80;;;1.70;99.90;;;;;;5039686;28;20211;-75
2024/01/02 03:20:29;;;;;;;4.15;3.95;;;1.70;99.90;;;;;;5039560;28;20226;-75
2024/01/02 03:22:56;;;;;;;4.25;4.03;;;1.70;99.90;;;;;;5039337;28;20217;-75
2024/01/02 03:25:23;;;;;;;4.13;3.83;;;1.70;99.90;;;;;;5039097;28;20330;-75
2024/01/02 03:27:50;;;;;;;4.18;3.97;;;1.70;99.90;;;;;;5039298;28;20207;-75
2024/01/02 03:30:18;;;;;;;4.75;4.45;;;1.70;99.90;;;;;;5036560;28;20226;-74
2024/01/02 03:32:46;;;;;;;4.40;4.10;;;1.70;99.90;;;;;;5039159;28;20199;-75
2024/01/02 03:35:13;;;;;;;4.20;4.00;;;1.70;99.90;;;;;;5036631;28;20218;-75
2024/01/02 03:37:40;;;;;;;4.15;3.95;;;1.60;99.90;;;;;;5036075;28;20211;-75
2024/01/02 03:40:09;;;;;;;4.18;3.90;;;1.60;99.90;;;;;;5038104;28;20227;-75
2024/01/02 03:42:36;;;;;;;4.22;4.03;;;1.60;99.90;;;;;;5038673;28;20203;-75
2024/01/02 03:45:03;;;;;;;4.38;4.07;;;1.60;99.90;;;;;;5037299;28;20237;-75
2024/01/02 03:47:30;;;;;;;4.57;4.28;;;1.60;99.90;;;;;;5036886;28;20511;-75
2024/01/02 03:49:59;;;;;;;5.05;4.70;;;1.70;99.90;;;;;;5037673;28;20222;-75
2024/01/02 03:52:27;;;;;;;4.10;3.90;;;1.70;99.90;;;;;;5039656;28;20206;-75
2024/01/02 03:54:54;;;;;;;4.18;3.97;;;1.70;99.90;;;;;;5037251;28;21771;-75
2024/01/02 03:57:20;;;;;;;3.83;3.63;;;1.70;99.90;;;;;;5039017;28;20206;-75
2024/01/02 03:59:48;;;;;;;4.25;4.05;;;1.70;99.90;;;;;;5037142;28;20218;-75
2024/01/02 04:02:15;;;;;;;4.13;3.92;;;1.70;99.90;;;;;;5039220;28;20198;-74
2024/01/02 04:04:42;;;;;;;4.25;4.00;;;1.70;99.90;;;;;;5036851;28;20213;-76
2024/01/02 04:07:10;;;;;;;4.40;4.10;;;1.70;99.90;;;;;;5039019;28;20625;-74
2024/01/02 04:09:37;;;;;;;4.47;4.18;;;1.70;99.90;;;;;;5036579;28;20219;-75
2024/01/02 04:12:05;;;;;;;4.38;4.10;;;1.60;99.90;;;;;;5037535;28;20203;-75
2024/01/02 04:14:32;;;;;;;4.70;4.40;;;1.60;99.90;;;;;;5036221;28;20213;-74
2024/01/02 04:16:59;;;;;;;4.35;4.05;;;1.60;99.90;;;;;;5037125;28;20222;-76
2024/01/02 04:19:27;;;;;;;3.80;3.60;;;1.50;99.90;;;;;;5036587;28;20233;-75
2024/01/02 04:21:55;;;;;;;4.35;4.05;;;1.50;99.90;;;;;;5037287;28;20799;-74
2024/01/02 04:24:23;;;;;;;4.57;4.28;;;1.50;99.90;;;;;;5037871;28;20203;-76
2024/01/02 04:26:50;;;;;;;5.00;4.70;;;1.50;99.90;;;;;;5036624;28;20222;-75
2024/01/02 04:29:17;;;;;;;5.10;4.80;;;1.50;99.90;;;;;;5036791;28;20710;-75
2024/01/02 04:31:44;;;;;;;4.88;4.57;;;1.50;99.90;;;;;;5038636;28;20772;-75
2024/01/02 04:34:12;;;;;;;4.15;3.85;;;1.50;99.90;;;;;;5036917;28;20203;-75
2024/01/02 04:36:39;;;;;;;4.72;4.43;;;1.50;99.90;;;;;;5035840;28;20713;-75
2024/01/02 04:39:06;;;;;;;4.40;4.20;;;1.50;99.90;;;;;;5037412;28;20230;-75
2024/01/02 04:41:35;;;;;;;4.28;3.97;;;1.50;99.90;;;;;;5037802;28;20698;-75
2024/01/02 04:44:02;;;;;;;4.15;3.95;;;1.50;99.90;;;;;;5038590;28;20206;-75
2024/01/02 04:46:29;;;;;;;3.78;3.47;;;1.40;99.90;;;;;;5037117;28;20221;-75
2024/01/02 04:48:56;;;;;;;4.80;4.50;;;1.40;99.90;;;;;;5044730;28;20207;-74
2024/01/02 04:51:23;;;;;;;4.80;4.50;;;1.40;99.90;;;;;;5041843;28;20237;-74
2024/01/02 04:53:50;;;;;;;4.32;4.13;;;1.30;99.90;;;;;;5040826;28;20834;-74
2024/01/02 04:56:17;;;;;;;4.50;4.30;;;1.30;99.90;;;;;;5039160;28;20234;-75
2024/01/02 04:58:45;;;;;;;4.40;4.20;;;1.30;99.90;;;;;;5040901;28;20206;-74
2024/01/02 05:01:13;;;;;;;4.85;4.50;;;1.30;99.90;;;;;;5038689;28;20223;-75
2024/01/02 05:03:40;;;;;;;4.10;3.90;;;1.30;99.90;;;;;;5040209;28;20203;-75
2024/01/02 05:06:07;;;;;;;4.18;3.95;;;1.30;99.90;;;;;;5041583;28;20219;-75
2024/01/02 05:08:35;;;;;;;4.78;4.47;;;1.30;99.90;;;;;;5039547;28;20213;-75
2024/01/02 05:11:02;;;;;;;4.45;4.15;;;1.30;99.90;;;;;;5039676;28;20218;-76
2024/01/02 05:13:29;;;;;;;3.75;3.55;;;1.30;99.90;;;;;;5040233;28;20213;-75
2024/01/02 05:15:57;;;;;;;4.25;3.95;;;1.30;99.90;;;;;;5041145;28;20219;-76
2024/01/02 05:18:25;;;;;;;4.20;3.90;;;1.30;99.90;;;;;;5041402;28;20223;-76
2024/01/02 05:20:52;;;;;;;3.78;3.58;;;1.30;99.90;;;;;;5040344;28;20229;-77
2024/01/02 05:23:19;;;;;;;4.30;4.05;;;1.40;99.90;;;;;;5038962;28;20219;-76
2024/01/02 05:25:46;;;;;;;4.45;4.25;;;1.40;99.90;;;;;;5041618;28;20215;-76
2024/01/02 05:28:13;;;;;;;4.25;3.95;;;1.40;99.90;;;;;;5039159;28;20616;-77
2024/01/02 05:30:40;;;;;;;4.40;4.10;;;1.40;99.90;;;;;;5038365;28;20234;-76
2024/01/02 05:33:08;;;;;;;4.20;3.97;;;1.40;99.90;;;;;;5038448;28;20788;-76
2024/01/02 05:35:35;;;;;;;4.70;4.30;;;1.40;99.90;;;;;;5037918;28;20223;-76
2024/01/02 05:38:03;;;;;;;5.10;4.70;;;1.40;99.90;;;;;;5041795;28;20276;-76
2024/01/02 05:40:30;;;;;;;4.75;4.45;;;1.30;99.90;;;;;;5038549;28;20246;-76
2024/01/02 05:42:57;;;;;;;5.45;4.95;;;1.30;99.90;;;;;;5041952;28;20206;-75
2024/01/02 05:45:24;;;;;;;5.53;5.03;;;1.30;99.90;;;;;;5039489;28;20487;-76
2024/01/02 05:47:51;;;;;;;5.15;4.80;;;1.30;99.90;;;;;;5042760;28;21950;-76
2024/01/02 05:50:19;;;;;;;4.25;3.95;;;1.30;99.90;;;;;;5039523;28;20230;-76
2024/01/02 05:52:47;;;;;;;4.75;4.45;;;1.30;99.90;;;;;;5042445;28;20203;-75
2024/01/02 05:55:14;;;;;;;4.30;4.10;;;1.30;99.90;;;;;;5038514;28;20321;-76
2024/01/02 05:57:41;;;;;;;4.45;4.25;;;1.30;99.90;;;;;;5041827;28;20202;-76
2024/01/02 06:00:09;;;;;;;4.45;4.15;;;1.30;99.90;;;;;;5038971;28;20226;-77
2024/01/02 06:02:36;;;;;;;4.47;4.28;;;1.30;99.90;;;;;;5039267;28;20293;-76
2024/01/02 06:05:04;;;;;;;4.13;3.92;;;1.20;99.90;;;;;;5040089;28;20233;-76
2024/01/02 06:07:32;;;;;;;4.38;4.07;;;1.20;99.90;;;;;;5042062;28;20210;-75
2024/01/02 06:09:59;;;;;;;4.13;3.92;;;1.20;99.90;;;;;;5039833;28;20941;-76
2024/01/02 06:12:27;;;;;;;4.93;4.63;;;1.30;99.90;;;;;;5039563;28;20203;-77
2024/01/02 06:14:54;;;;;;;4.88;4.57;;;1.30;99.90;;;;;;5038476;28;20663;-76
2024/01/02 06:17:21;;;;;;;5.10;4.78;;;1.30;99.90;;;;;;5040931;28;20209;-75
2024/01/02 06:19:48;;;;;;;4.95;4.65;;;1.20;99.90;;;;;;5041356;28;20941;-76
2024/01/02 06:22:16;;;;;;;5.20;4.90;;;1.20;99.90;;;;;;5040784;28;20195;-77
2024/01/02 06:24:45;;;;;;;4.43;4.13;;;1.20;99.90;;;;;;5040320;28;20206;-76
2024/01/02 06:27:12;;;;;;;4.50;4.13;;;1.20;99.90;;;;;;5042319;28;20218;-77
2024/01/02 06:29:39;;;;;;;4.05;3.85;;;1.20;99.90;;;;;;5041915;28;20218;-76
2024/01/02 06:32:06;;;;;;;5.38;5.07;;;1.20;99.90;;;;;;5038688;28;21014;-76
2024/01/02 06:34:33;;;;;;;4.50;4.20;;;1.20;99.90;;;;;;5041412;28;20207;-76
2024/01/02 06:37:01;;;;;;;4.88;4.57;;;1.10;99.90;;;;;;5041503;28;20215;-76
2024/01/02 06:39:28;;;;;;;4.28;4.07;;;1.10;99.90;;;;;;5041249;28;20223;-77
2024/01/02 06:41:56;;;;;;;4.53;4.18;;;1.10;99.90;;;;;;5043170;28;20230;-76
2024/01/02 06:44:23;;;;;;;4.10;3.90;;;1.10;99.90;;;;;;5045203;28;20424;-76
2024/01/02 06:46:50;;;;;;;4.18;3.97;;;1.10;99.90;;;;;;5043504;28;20900;-75
2024/01/02 06:49:17;;;;;;;4.20;4.00;;;1.10;99.90;;;;;;5040841;28;20218;-76
2024/01/02 06:51:45;;;;;;;4.50;4.20;;;1.10;99.90;;;;;;5036847;28;20227;-77
2024/01/02 06:54:12;;;;;;;4.80;4.40;;;1.20;99.90;;;;;;5040007;28;20877;-75
2024/01/02 06:56:39;;;;;;;4.38;4.13;;;1.20;99.90;;;;;;5038496;28;20227;-76
2024/01/02 06:59:08;;;;;;;4.28;3.97;;;1.20;99.90;;;;;;5038918;28;20223;-77
2024/01/02 07:01:36;;;;;;;4.40;4.10;;;1.20;99.90;;;;;;5039509;28;20227;-76
2024/01/02 07:04:03;;;;;;;4.55;4.25;;;1.20;99.90;;;;;;5040161;28;20227;-79
2024/01/02 07:06:32;;;;;;;4.68;4.28;;;1.20;99.90;;;;;;5038623;28;20219;-76
2024/01/02 07:08:59;;;;;;;3.95;3.75;;;1.20;99.90;;;;;;5039185;28;20231;-77
2024/01/02 07:11:26;;;;;;;4.50;4.20;;;1.30;99.90;;;;;;5039407;28;20222;-76
2024/01/02 07:13:53;;;;;;;4.35;4.15;;;1.30;99.90;;;;;;5038839;28;20200;-76
2024/01/02 07:16:22;;;;;;;4.95;4.55;;;1.20;99.90;;;;;;5039874;28;20219;-76
2024/01/02 07:18:49;;;;;;;4.55;4.25;;;1.20;99.90;;;;;;5040446;28;20230;-75
2024/01/02 07:21:16;;;;;;;4.35;4.05;;;1.30;99.90;;;;;;5037381;28;20221;-76
2024/01/02 07:23:43;;;;;;;4.55;4.32;;;1.30;99.90;;;;;;5039601;28;20207;-76
2024/01/02 07:26:10;;;;;;;4.40;4.10;;;1.30;99.90;;;;;;5040069;28;20230;-76
2024/01/02 07:28:37;;;;;;;4.43;4.03;;;1.40;99.90;;;;;;5036336;28;20209;-76
2024/01/02 07:31:04;;;;;;;4.35;4.05;;;1.40;99.90;;;;;;5039268;28;20241;-75
2024/01/02 07:33:33;;;;;;;4.10;3.90;;;1.40;99.90;;;;;;5038682;28;20708;-75
2024/01/02 07:36:00;;;;;;;4.57;4.20;;;1.40;99.90;;;;;;5037804;28;20234;-77
2024/01/02 07:38:27;;;;;;;4.28;4.07;;;1.50;99.90;;;;;;5037660;28;20207;-75
2024/01/02 07:40:54;;;;;;;4.25;4.03;;;1.50;99.90;;;;;;5038757;28;20954;-76
2024/01/02 07:43:23;;;;;;;4.72;4.43;;;1.50;99.90;;;;;;5035928;28;20732;-76
2024/01/02 07:45:50;;;;;;;3.85;3.65;;;1.60;99.90;;;;;;5039589;28;20229;-76
2024/01/02 07:48:17;;;;;;;4.82;4.53;;;1.60;99.90;;;;;;5036896;28;20207;-75
2024/01/02 07:50:45;;;;;;;4.50;4.20;;;1.70;99.90;;;;;;5038745;28;20219;-76
2024/01/02 07:53:16;;;;;;;4.93;4.63;;;1.70;99.90;;;;;;5039008;28;20204;-77
2024/01/02 07:55:43;;;;;;;4.47;4.28;;;1.80;99.90;;;;;;5037565;28;20711;-76
2024/01/02 07:58:11;;;;;;;4.22;4.00;;;1.80;99.90;;;;;;5038356;28;20271;-75
2024/01/02 08:00:38;;;;;;;4.72;4.43;;;1.90;99.90;;;;;;5037064;28;20233;-75
2024/01/02 08:03:05;;;;;;;4.40;4.10;;;2.00;99.90;;;;;;5038399;28;20202;-76
2024/01/02 08:05:32;;;;;;;4.80;4.50;;;2.00;99.90;;;;;;5039743;28;20234;-76
2024/01/02 08:08:00;;;;;;;5.07;4.68;;;2.10;99.90;;;;;;5038542;28;20215;-76
2024/01/02 08:10:28;;;;;;;5.10;4.72;;;2.20;99.90;;;;;;5037252;28;20232;-76
2024/01/02 08:12:55;;;;;;;5.80;5.40;;;2.30;99.90;;;;;;5038545;28;20291;-77
2024/01/02 08:15:22;;;;;;;4.90;4.60;;;2.40;99.90;;;;;;5037393;28;20230;-76
2024/01/02 08:17:49;;;;;;;5.22;4.82;;;2.40;99.90;;;;;;5038077;28;20199;-76
2024/01/02 08:20:16;;;;;;;4.70;4.30;;;2.50;99.90;;;;;;5037857;28;20223;-76
2024/01/02 08:22:44;;;;;;;5.88;5.47;;;2.60;99.90;;;;;;5041206;28;20210;-76
2024/01/02 08:25:12;;;;;;;6.47;5.97;;;2.80;99.90;;;;;;5042834;28;20223;-75
2024/01/02 08:27:41;;;;;;;5.90;5.40;;;3.10;99.90;;;;;;5043128;28;20287;-76
2024/01/02 08:30:09;;;;;;;5.40;4.95;;;3.30;99.90;;;;;;5042069;28;20237;-75
2024/01/02 08:32:36;;;;;;;6.20;5.70;;;3.50;99.90;;;;;;5045327;28;20216;-75
2024/01/02 08:35:03;;;;;;;6.30;5.70;;;3.60;99.90;;;;;;5042124;28;20224;-76
2024/01/02 08:37:30;;;;;;;5.10;4.75;;;3.80;99.90;;;;;;5041765;28;20200;-76
2024/01/02 08:39:57;;;;;;;5.10;4.70;;;4.00;99.90;;;;;;5044866;28;20233;-75
2024/01/02 08:42:25;;;;;;;5.20;4.90;;;4.10;99.90;;;;;;5043712;28;20226;-76
2024/01/02 08:44:52;;;;;;;5.65;5.25;;;4.30;99.90;;;;;;5042704;28;20199;-76
2024/01/02 08:47:19;;;;;;;5.43;5.00;;;4.50;99.90;;;;;;5042140;28;20207;-75
2024/01/02 08:49:46;;;;;;;5.20;4.80;;;4.80;99.90;;;;;;5039395;28;20223;-75
2024/01/02 08:52:14;;;;;;;5.60;5.20;;;5.10;99.90;;;;;;5041701;28;20202;-76
2024/01/02 08:54:41;;;;;;;5.50;5.00;;;5.50;99.90;;;;;;5039534;28;20294;-76
2024/01/02 08:57:08;;;;;;;5.50;5.18;;;5.70;99.90;;;;;;5041096;28;20199;-76
2024/01/02 08:59:38;;;;;;;5.88;5.47;;;5.80;99.90;;;;;;5042480;28;20229;-75
2024/01/02 09:02:06;;;;;;;5.57;5.18;;;5.70;99.90;;;;;;5040934;28;20223;-76
2024/01/02 09:04:33;;;;;;;5.50;5.07;;;5.70;99.90;;;;;;5038843;28;20230;-77
2024/01/02 09:07:04;;;;;;;5.25;4.85;;;5.50;99.90;;;;;;5037516;28;20701;-75
2024/01/02 09:09:31;;;;;;;5.50;5.10;;;5.40;99.90;;;;;;5040796;28;20747;-75
2024/01/02 09:12:00;;;;;;;5.30;4.90;;;5.30;99.90;;;;;;5037792;28;20221;-77
2024/01/02 09:14:28;;;;;;;7.20;6.60;;;5.30;99.90;;;;;;5041464;28;20896;-77
2024/01/02 09:16:57;;;;;;;7.60;6.93;;;5.40;99.90;;;;;;5043844;28;20728;-77
2024/01/02 09:19:30;;;;;;;6.25;5.78;;;5.50;99.90;;;;;;5042155;28;20223;-75
2024/01/02 09:21:57;;;;;;;6.20;5.70;;;5.80;99.90;;;;;;5040511;28;20251;-76
2024/01/02 09:24:24;;;;;;;5.95;5.45;;;6.30;99.90;;;;;;5042740;28;20214;-75
2024/01/02 09:26:57;;;;;;;5.32;4.93;;;7.40;99.90;;;;;;5041432;28;20210;-76
2024/01/02 09:29:25;;;;;;;5.60;5.13;;;8.30;99.90;;;;;;5043485;28;20727;-76
2024/01/02 09:31:54;;;;;;;5.68;5.18;;;10.10;99.90;;;;;;5040445;28;20211;-75
2024/01/02 09:34:23;;;;;;;5.50;5.10;;;12.10;99.90;;;;;;5041340;28;20231;-78
2024/01/02 09:36:52;;;;;;;5.63;5.13;;;13.40;99.90;;;;;;5042086;28;20771;-77
2024/01/02 09:39:19;;;;;;;5.55;5.05;;;14.10;99.90;;;;;;5044354;28;20269;-75
2024/01/02 09:42:03;;;;;;;4.50;4.20;;;14.80;99.90;;;;;;5041116;28;20225;-78
2024/01/02 09:44:45;;;;;;;4.40;4.00;;;15.10;99.90;;;;;;5042119;28;20210;-76
2024/01/02 09:47:31;;;;;;;5.00;3.95;;;14.70;99.90;;;;;;5041241;28;20222;-76
2024/01/02 09:50:09;;;;;;;4.57;4.18;;;13.40;99.90;;;;;;5044683;28;20256;-78
2024/01/02 09:52:54;;;;;;;4.10;3.72;;;12.10;99.90;;;;;;5043100;28;20203;-76
2024/01/02 09:55:34;;;;;;;4.38;4.07;;;10.80;99.90;;;;;;5041643;28;20233;-77
2024/01/02 09:58:20;;;;;;;4.90;4.50;;;9.60;99.90;;;;;;5044192;28;20238;-76
2024/01/02 10:01:00;;;;;;;4.85;4.45;;;8.80;99.90;;;;;;5039388;28;20257;-76
2024/01/02 10:03:56;;;;;;;5.03;4.63;;;8.10;99.90;;;;;;5041898;28;20217;-76
2024/01/02 10:06:40;;;;;;;4.70;4.30;;;7.50;99.90;;;;;;5036373;28;20227;-76
2024/01/02 10:09:27;;;;;;;5.15;4.70;;;6.90;99.90;;;;;;5042748;28;20563;-76
2024/01/02 10:12:07;;;;;;;4.80;4.40;;;6.50;99.90;;;;;;5038572;28;20218;-76
2024/01/02 10:14:48;;;;;;;5.18;4.78;;;6.20;99.90;;;;;;5041871;28;22851;-75
2024/01/02 10:17:26;;;;;;;5.25;4.75;;;5.80;99.90;;;;;;5041377;28;20885;-76
2024/01/02 10:20:03;;;;;;;5.30;4.90;;;5.60;99.90;;;;;;5038914;28;20317;-75
2024/01/02 10:22:37;;;;;;;5.03;4.63;;;5.40;99.90;;;;;;5040300;28;20293;-76
2024/01/02 10:25:09;;;;;;;5.47;5.03;;;5.40;99.90;;;;;;5037378;28;20190;-76
2024/01/02 10:27:43;;;;;;;5.38;4.95;;;5.30;99.90;;;;;;5037412;28;20646;-77
2024/01/02 10:30:12;;;;;;;4.97;4.57;;;5.30;99.90;;;;;;5036370;28;20233;-76
2024/01/02 10:32:47;;;;;;;5.72;5.22;;;5.30;99.90;;;;;;5038292;28;20187;-77
2024/01/02 10:35:21;;;;;;;5.80;5.30;;;5.30;99.90;;;;;;5042869;28;20287;-76
2024/01/02 10:38:03;;;;;;;5.13;4.72;;;5.30;99.90;;;;;;5039019;28;20677;-77
2024/01/02 10:40:30;;;;;;;6.35;5.43;;;5.30;99.90;;;;;;5038550;28;20226;-75
2024/01/02 10:43:21;;;;;;;5.93;5.10;;;5.40;99.90;;;;;;5040870;28;20813;-76
2024/01/02 10:45:57;;;;;;;5.72;5.20;;;5.50;99.90;;;;;;5037721;28;20254;-76
2024/01/02 10:48:45;;;;;;;5.93;5.47;;;5.60;99.90;;;;;;5038204;28;20986;-77
2024/01/02 10:51:23;;;;;;;5.38;4.97;;;5.70;99.90;;;;;;5025174;28;20325;-76
2024/01/02 10:54:03;;;;;;;5.57;5.18;;;5.70;99.90;;;;;;5034914;28;20230;-76
2024/01/02 10:56:37;;;;;;;5.57;5.18;;;5.70;99.90;;;;;;5035255;28;20650;-77
2024/01/02 10:59:13;;;;;;;5.97;5.53;;;5.80;99.90;;;;;;5037781;28;20237;-76
2024/01/02 11:01:45;;;;;;;5.25;4.85;;;5.70;99.90;;;;;;5034787;28;20241;-77
2024/01/02 11:04:21;;;;;;;5.10;4.70;;;5.50;99.90;;;;;;5033358;28;20203;-77
2024/01/02 11:06:56;;;;;;;5.35;4.95;;;5.50;99.90;;;;;;5036048;28;20242;-76
2024/01/02 11:09:35;;;;;;;5.22;4.82;;;5.40;99.90;;;;;;5040426;28;20305;-76
2024/01/02 11:12:05;;;;;;;5.40;5.00;;;5.50;99.90;;;;;;5030364;28;20214;-78
2024/01/02 11:14:34;;;;;;;5.45;4.95;;;5.70;99.90;;;;;;5031576;28;20211;-77
2024/01/02 11:17:06;;;;;;;5.07;4.60;;;5.90;99.90;;;;;;5034810;28;20217;-76
2024/01/02 11:19:37;;;;;;;5.07;4.68;;;6.20;99.90;;;;;;5030869;28;20720;-78
2024/01/02 11:22:12;;;;;;;5.22;4.72;;;6.50;99.90;;;;;;5032013;28;20790;-77
2024/01/02 11:24:48;;;;;;;6.07;5.57;;;6.50;99.90;;;;;;5031116;28;20198;-77
2024/01/02 11:27:17;;;;;;;5.82;5.32;;;6.50;99.90;;;;;;5029791;28;20230;-77
2024/01/02 11:29:45;;;;;;;5.22;4.80;;;6.90;99.90;;;;;;5029964;28;20222;-77
2024/01/02 11:32:19;;;;;;;5.60;5.20;;;7.30;99.90;;;;;;5028169;28;20222;-78
2024/01/02 11:34:59;;;;;;;5.38;4.90;;;7.60;99.90;;;;;;5030531;28;20217;-77
2024/01/02 11:37:35;;;;;;;5.15;4.75;;;8.00;99.90;;;;;;5028238;28;20233;-78
2024/01/02 11:40:21;;;;;;;5.82;5.32;;;8.10;99.90;;;;;;5033932;28;20356;-77
2024/01/02 11:42:57;;;;;;;4.70;4.30;;;8.30;99.90;;;;;;5029526;28;20305;-77
2024/01/02 11:45:29;;;;;;;5.40;4.90;;;8.50;99.90;;;;;;5029543;28;20230;-78
2024/01/02 11:48:11;;;;;;;5.25;4.85;;;8.70;99.90;;;;;;5031982;28;20325;-77
2024/01/02 11:50:49;;;;;;;5.90;5.25;;;8.80;99.90;;;;;;5028570;28;20237;-77
2024/01/02 11:53:28;;;;;;;5.85;5.35;;;8.80;99.90;;;;;;5033797;28;20241;-77
2024/01/02 11:56:07;;;;;;;5.57;5.07;;;8.90;99.90;;;;;;5033167;28;20232;-77
2024/01/02 11:58:40;;;;;;;5.47;4.97;;;9.00;99.90;;;;;;5035624;28;20206;-78
2024/01/02 12:01:17;;;;;;;5.53;5.05;;;8.90;99.90;;;;;;5035733;28;20238;-78
2024/01/02 12:03:55;;;;;;;4.95;4.55;;;9.00;99.90;;;;;;5038438;28;20313;-78
2024/01/02 12:06:30;;;;;;;4.85;4.45;;;9.00;99.90;;;;;;5033715;28;20279;-76
2024/01/02 12:09:05;;;;;;;5.20;4.68;;;9.10;99.90;;;;;;5038658;28;20195;-77
2024/01/02 12:11:38;;;;;;;5.03;4.63;;;9.10;99.90;;;;;;5039860;28;20313;-77
2024/01/02 12:14:17;;;;;;;5.40;4.75;;;8.90;99.90;;;;;;5036388;28;20203;-76
2024/01/02 12:16:49;;;;;;;4.50;4.20;;;8.70;99.90;;;;;;5038009;28;20229;-78
2024/01/02 12:19:22;;;;;;;4.70;4.30;;;8.50;99.90;;;;;;5041142;28;20720;-77
2024/01/02 12:21:50;;;;;;;4.30;4.00;;;8.30;99.90;;;;;;5037841;28;20227;-76
2024/01/02 12:24:17;;;;;;;4.68;4.28;;;8.20;99.90;;;;;;5038094;28;20214;-76
2024/01/02 12:26:52;;;;;;;4.63;4.22;;;8.20;99.90;;;;;;5034790;28;20215;-76
2024/01/02 12:29:29;;;;;;;5.00;4.60;;;8.30;99.90;;;;;;5035557;28;20225;-77
2024/01/02 12:32:02;;;;;;;4.28;3.95;;;8.20;99.90;;;;;;5035534;28;20218;-77
2024/01/02 12:34:33;;;;;;;3.97;3.67;;;8.60;99.90;;;;;;5037901;28;20217;-77
2024/01/02 12:37:13;;;;;;;3.90;3.60;;;9.20;99.90;;;;;;5037228;28;20229;-77
2024/01/02 12:39:40;;;;;;;4.78;4.45;;;9.30;99.90;;;;;;5037004;28;20223;-75
2024/01/02 12:42:16;;;;;;;4.00;3.70;;;8.90;99.90;;;;;;5036529;28;20313;-75
2024/01/02 12:44:45;;;;;;;4.63;4.32;;;8.50;99.90;;;;;;5035417;28;20199;-76
2024/01/02 12:47:16;;;;;;;4.75;4.35;;;8.20;99.90;;;;;;5037716;28;20716;-76
2024/01/02 12:49:49;;;;;;;4.55;4.15;;;7.90;99.90;;;;;;5037256;28;20250;-75
2024/01/02 12:52:19;;;;;;;3.92;3.63;;;7.80;99.90;;;;;;5037580;28;20223;-76
2024/01/02 12:54:49;;;;;;;4.70;4.35;;;7.60;99.90;;;;;;5039266;28;20345;-76
2024/01/02 12:57:20;;;;;;;3.95;3.65;;;7.50;99.90;;;;;;5036903;28;20318;-76
2024/01/02 12:59:47;;;;;;;3.63;3.42;;;7.50;99.90;;;;;;5037223;28;20230;-77
2024/01/02 13:02:14;;;;;;;4.68;4.30;;;7.50;99.90;;;;;;5036114;28;20234;-75
2024/01/02 13:04:42;;;;;;;3.78;3.53;;;7.50;99.90;;;;;;5036003;28;20230;-76
2024/01/02 13:07:12;;;;;;;4.00;3.70;;;7.40;99.90;;;;;;5037189;28;20231;-77
2024/01/02 13:09:39;;;;;;;4.10;3.80;;;7.30;99.90;;;;;;5041439;28;20250;-75